Time;durP1;ratioP1;P1;durP2;ratioP2;P2;SDS_P1;SDS_P2;PMS_P1;PMS_P2;Temp;Humidity;BMP_temperature;BMP_pressure;BME280_temperature;BME280_humidity;BME280_pressure;Samples;Min_cycle;Max_cycle;Signal;HPM_P1;HPM_P2
2022/04/04 00:00:44;;;;;;;0.40;0.30;;;;;;;3.24;89.78;100956.34;5115445;28;20855;-70
2022/04/04 00:03:11;;;;;;;0.40;0.30;;;;;;;3.25;89.09;100947.25;5115093;28;20936;-70
2022/04/04 00:05:39;;;;;;;0.40;0.30;;;;;;;3.19;89.50;100944.75;5115419;28;20492;-70
2022/04/04 00:08:06;;;;;;;0.40;0.30;;;;;;;3.19;89.79;100936.72;5115236;28;20467;-70
2022/04/04 00:10:33;;;;;;;0.40;0.30;;;;;;;3.19;90.10;100934.88;5114879;28;21026;-71
2022/04/04 00:13:01;;;;;;;0.40;0.30;;;;;;;3.18;89.98;100937.75;5115262;28;20462;-70
2022/04/04 00:15:27;;;;;;;0.40;0.30;;;;;;;3.17;90.15;100934.28;5115173;28;20436;-70
2022/04/04 00:17:54;;;;;;;0.40;0.30;;;;;;;3.16;89.82;100938.00;5115131;28;20530;-71
2022/04/04 00:20:21;;;;;;;0.40;0.30;;;;;;;3.10;89.63;100936.31;5115065;28;20538;-71
2022/04/04 00:22:47;;;;;;;0.40;0.30;;;;;;;3.01;90.47;100927.88;5115024;28;20439;-70
2022/04/04 00:25:14;;;;;;;0.40;0.40;;;;;;;3.05;90.17;100928.19;5114981;28;20443;-70
2022/04/04 00:27:41;;;;;;;0.40;0.30;;;;;;;2.99;90.38;100932.66;5114983;28;20439;-70
2022/04/04 00:30:09;;;;;;;0.40;0.40;;;;;;;3.01;90.46;100922.53;5114703;28;20487;-70
2022/04/04 00:32:37;;;;;;;0.40;0.30;;;;;;;3.03;90.35;100922.28;5114809;28;20446;-70
2022/04/04 00:35:04;;;;;;;0.40;0.40;;;;;;;3.04;89.78;100921.22;5114715;28;20436;-71
2022/04/04 00:37:30;;;;;;;0.40;0.30;;;;;;;3.03;90.69;100925.75;5114700;28;20446;-70
2022/04/04 00:39:57;;;;;;;0.40;0.30;;;;;;;2.99;91.16;100921.13;5114608;28;20463;-70
2022/04/04 00:42:23;;;;;;;0.40;0.30;;;;;;;3.02;90.59;100926.81;5114687;28;20439;-70
2022/04/04 00:44:51;;;;;;;0.40;0.30;;;;;;;3.00;90.31;100923.56;5114659;28;20444;-71
2022/04/04 00:47:19;;;;;;;0.40;0.30;;;;;;;3.02;90.03;100926.00;5114448;28;20463;-70
2022/04/04 00:49:45;;;;;;;0.40;0.30;;;;;;;2.99;90.44;100916.59;5114337;28;20456;-70
2022/04/04 00:52:11;;;;;;;0.40;0.30;;;;;;;2.94;90.42;100918.38;5114429;28;20490;-71
2022/04/04 00:54:38;;;;;;;0.40;0.30;;;;;;;2.91;90.69;100913.50;5114450;28;20440;-70
2022/04/04 00:57:05;;;;;;;0.40;0.30;;;;;;;2.92;90.45;100915.13;5114384;28;20447;-71
2022/04/04 00:59:32;;;;;;;0.40;0.30;;;;;;;2.85;90.40;100920.63;5114213;28;20516;-70
2022/04/04 01:01:58;;;;;;;0.40;0.30;;;;;;;2.79;91.09;100924.28;5114268;28;20469;-71
2022/04/04 01:04:26;;;;;;;0.40;0.30;;;;;;;2.79;90.66;100913.59;5114276;28;20444;-71
2022/04/04 01:06:52;;;;;;;0.40;0.30;;;;;;;2.73;91.17;100911.84;5114306;28;20451;-72
2022/04/04 01:09:19;;;;;;;0.40;0.30;;;;;;;2.71;91.41;100905.97;5113342;28;20977;-72
2022/04/04 01:12:02;;;;;;;0.40;0.30;;;;;;;2.67;91.14;100910.16;5113938;28;20646;-72
2022/04/04 01:14:28;;;;;;;0.40;0.30;;;;;;;2.62;91.46;100896.72;5114115;28;20439;-71
2022/04/04 01:16:55;;;;;;;0.40;0.30;;;;;;;2.60;91.74;100890.78;5114072;28;20439;-72
2022/04/04 01:19:21;;;;;;;0.40;0.30;;;;;;;2.61;91.69;100890.56;5113903;28;20474;-72
2022/04/04 01:21:49;;;;;;;0.40;0.30;;;;;;;2.61;91.78;100887.03;5113963;28;20443;-72
2022/04/04 01:24:19;;;;;;;0.40;0.30;;;;;;;2.64;91.89;100890.03;5113919;28;20431;-71
2022/04/04 01:26:46;;;;;;;0.40;0.30;;;;;;;2.64;91.46;100887.38;5113880;28;20523;-72
2022/04/04 01:29:13;;;;;;;0.40;0.30;;;;;;;2.64;90.99;100886.56;5113717;28;20463;-71
2022/04/04 01:31:39;;;;;;;0.40;0.30;;;;;;;2.59;91.48;100887.28;5113776;28;20596;-70
2022/04/04 01:34:06;;;;;;;0.40;0.30;;;;;;;2.57;91.35;100884.06;5113453;28;20959;-67
2022/04/04 01:36:33;;;;;;;0.40;0.30;;;;;;;2.53;91.94;100890.94;5113732;28;20435;-68
2022/04/04 01:38:59;;;;;;;0.40;0.30;;;;;;;2.55;91.86;100890.69;5115138;28;20463;-68
2022/04/04 01:41:27;;;;;;;0.40;0.30;;;;;;;2.54;92.52;100892.56;5113707;28;20492;-71
2022/04/04 01:43:54;;;;;;;0.40;0.30;;;;;;;2.52;92.24;100884.78;5113668;28;20435;-70
2022/04/04 01:46:27;;;;;;;0.40;0.30;;;;;;;2.47;92.26;100879.31;5113269;28;20446;-70
2022/04/04 01:48:55;;;;;;;0.40;0.30;;;;;;;2.51;91.93;100877.78;5113638;28;20463;-70
2022/04/04 01:51:21;;;;;;;0.40;0.30;;;;;;;2.51;92.11;100876.97;5113274;28;20996;-70
2022/04/04 01:53:49;;;;;;;0.40;0.30;;;;;;;2.56;92.08;100871.72;5113588;28;20441;-70
2022/04/04 01:56:16;;;;;;;0.40;0.30;;;;;;;2.56;91.29;100869.03;5113572;28;20547;-70
2022/04/04 01:58:45;;;;;;;0.40;0.30;;;;;;;2.58;91.46;100872.31;5113536;28;20459;-70
2022/04/04 02:01:14;;;;;;;0.40;0.30;;;;;;;2.53;91.25;100865.00;5113228;28;20989;-70
2022/04/04 02:03:41;;;;;;;0.40;0.30;;;;;;;2.55;91.38;100861.28;5113530;28;20439;-70
2022/04/04 02:06:08;;;;;;;0.40;0.30;;;;;;;2.55;91.51;100867.44;5113456;28;20436;-70
2022/04/04 02:08:35;;;;;;;0.40;0.30;;;;;;;2.50;91.44;100859.31;5113403;28;20517;-70
2022/04/04 02:11:02;;;;;;;0.40;0.30;;;;;;;2.52;92.05;100851.84;5113355;28;20480;-70
2022/04/04 02:13:29;;;;;;;0.40;0.30;;;;;;;2.52;91.56;100851.84;5113106;28;20446;-70
2022/04/04 02:16:00;;;;;;;0.40;0.30;;;;;;;2.51;91.36;100844.91;5113157;28;20439;-70
2022/04/04 02:18:27;;;;;;;0.40;0.30;;;;;;;2.47;91.62;100836.53;5113487;28;20459;-70
2022/04/04 02:20:54;;;;;;;0.40;0.37;;;;;;;2.44;91.51;100833.56;5113725;28;20454;-70
2022/04/04 02:23:20;;;;;;;0.40;0.30;;;;;;;2.43;91.92;100842.63;5117032;28;20965;-70
2022/04/04 02:25:48;;;;;;;0.40;0.30;;;;;;;2.42;92.04;100830.31;5117370;28;20442;-70
2022/04/04 02:28:15;;;;;;;0.40;0.30;;;;;;;2.42;92.22;100830.31;5117242;28;20495;-70
2022/04/04 02:30:42;;;;;;;0.40;0.30;;;;;;;2.36;92.39;100826.75;5117129;28;20448;-69
2022/04/04 02:33:12;;;;;;;0.40;0.30;;;;;;;2.38;92.55;100821.94;5117217;28;20439;-72
2022/04/04 02:35:39;;;;;;;0.40;0.30;;;;;;;2.38;92.64;100826.47;5117165;28;20443;-71
2022/04/04 02:38:06;;;;;;;0.40;0.30;;;;;;;2.38;92.51;100811.25;5117021;28;20459;-70
2022/04/04 02:40:33;;;;;;;0.40;0.30;;;;;;;2.36;92.53;100802.69;5117116;28;20447;-70
2022/04/04 02:43:00;;;;;;;0.40;0.30;;;;;;;2.35;92.58;100806.41;5117018;28;20455;-71
2022/04/04 02:45:27;;;;;;;0.40;0.30;;;;;;;2.36;92.43;100802.69;5116946;28;20849;-71
2022/04/04 02:47:53;;;;;;;0.40;0.30;;;;;;;2.35;92.27;100794.91;5116365;28;20856;-71
2022/04/04 02:50:21;;;;;;;0.40;0.30;;;;;;;2.33;92.93;100800.47;5116857;28;20847;-70
2022/04/04 02:52:48;;;;;;;0.40;0.30;;;;;;;2.34;92.50;100795.94;5116744;28;20479;-70
2022/04/04 02:58:07;;;;;;;0.40;0.30;;;;;;;2.36;93.67;100796.53;5115121;28;20458;-70
2022/04/04 03:00:34;;;;;;;0.40;0.30;;;;;;;2.37;93.53;100798.16;5116665;28;20439;-70
2022/04/04 03:03:00;;;;;;;0.40;0.40;;;;;;;2.41;92.72;100796.63;5116520;28;20440;-69
2022/04/04 03:05:28;;;;;;;0.50;0.30;;;;;;;2.39;92.96;100788.00;5116535;28;20841;-70
2022/04/04 03:07:55;;;;;;;0.40;0.30;;;;;;;2.43;92.84;100787.28;5116455;28;20443;-69
2022/04/04 03:10:21;;;;;;;0.40;0.30;;;;;;;2.43;92.46;100781.94;5116510;28;20432;-70
2022/04/04 03:12:49;;;;;;;0.40;0.30;;;;;;;2.42;92.44;100785.66;5116383;28;20567;-70
2022/04/04 03:15:17;;;;;;;0.40;0.30;;;;;;;2.42;93.34;100790.22;5116023;28;20440;-69
2022/04/04 03:17:47;;;;;;;0.40;0.30;;;;;;;2.43;92.82;100786.47;5116224;28;20462;-69
2022/04/04 03:20:15;;;;;;;0.40;0.30;;;;;;;2.45;93.05;100773.69;5116273;28;20447;-69
2022/04/04 03:22:45;;;;;;;0.40;0.30;;;;;;;2.50;93.02;100773.78;5116260;28;20435;-69
2022/04/04 03:25:13;;;;;;;0.40;0.30;;;;;;;2.48;92.62;100768.69;5116152;28;20427;-70
2022/04/04 03:27:41;;;;;;;0.40;0.30;;;;;;;2.48;92.33;100766.00;5115812;28;20457;-70
2022/04/04 03:30:10;;;;;;;0.40;0.30;;;;;;;2.48;92.71;100755.31;5115987;28;20464;-70
2022/04/04 03:32:37;;;;;;;0.40;0.30;;;;;;;2.54;92.38;100761.53;5114987;28;20479;-70
2022/04/04 03:35:05;;;;;;;0.40;0.30;;;;;;;2.45;92.65;100765.66;5116030;28;20440;-69
2022/04/04 03:37:31;;;;;;;0.40;0.30;;;;;;;2.45;92.84;100760.31;5116163;28;20478;-70
2022/04/04 03:39:59;;;;;;;0.40;0.30;;;;;;;2.44;93.27;100761.38;5116004;28;20456;-70
2022/04/04 03:42:25;;;;;;;0.40;0.30;;;;;;;2.45;93.28;100761.13;5115945;28;20491;-69
2022/04/04 03:44:53;;;;;;;0.40;0.30;;;;;;;2.44;92.96;100758.72;5115780;28;20439;-69
2022/04/04 03:47:19;;;;;;;0.40;0.30;;;;;;;2.47;92.77;100750.19;5115387;28;20460;-70
2022/04/04 03:49:46;;;;;;;0.40;0.30;;;;;;;2.52;92.57;100744.91;5115094;28;20546;-70
2022/04/04 03:52:12;;;;;;;2.50;2.30;;;;;;;2.49;92.93;100734.72;5115459;28;20599;-70
2022/04/04 03:54:39;;;;;;;0.40;0.30;;;;;;;2.47;93.00;100734.97;5115705;28;20451;-69
2022/04/04 03:57:07;;;;;;;0.40;0.30;;;;;;;2.49;92.90;100734.72;5115692;28;20530;-70
2022/04/04 03:59:33;;;;;;;0.40;0.30;;;;;;;2.51;92.74;100738.75;5115520;28;20474;-71
2022/04/04 04:02:00;;;;;;;0.40;0.30;;;;;;;2.48;92.85;100733.13;5115498;28;20848;-69
2022/04/04 04:04:26;;;;;;;0.40;0.30;;;;;;;2.52;92.48;100724.38;5115450;28;20440;-70
2022/04/04 04:06:53;;;;;;;0.40;0.30;;;;;;;2.54;92.24;100721.44;5115051;28;20492;-70
2022/04/04 04:09:20;;;;;;;0.40;0.30;;;;;;;2.54;92.43;100716.09;5115325;28;20498;-70
2022/04/04 04:11:46;;;;;;;0.40;0.30;;;;;;;2.52;92.43;100712.84;5115153;28;20475;-70
2022/04/04 04:14:14;;;;;;;0.40;0.30;;;;;;;2.56;92.31;100707.81;5114918;28;20967;-70
2022/04/04 04:16:40;;;;;;;1.70;1.60;;;;;;;2.48;92.27;100701.03;5115158;28;20432;-70
2022/04/04 04:20:19;;;;;;;1.37;1.27;;;;;;;2.50;92.32;100693.56;5114920;28;20824;-70
2022/04/04 04:21:54;;;;;;;0.40;0.30;;;;;;;2.52;92.24;100699.47;5114530;28;20431;-70
2022/04/04 04:24:20;;;;;;;0.40;0.30;;;;;;;2.51;92.44;100690.66;5114587;28;20807;-70
2022/04/04 04:26:47;;;;;;;0.40;0.30;;;;;;;2.50;92.72;100698.91;5114991;28;20440;-69
2022/04/04 04:29:15;;;;;;;0.40;0.30;;;;;;;2.50;92.18;100705.06;5114900;28;20489;-70
2022/04/04 04:31:41;;;;;;;1.33;1.23;;;;;;;2.52;92.15;100697.63;5114798;28;20475;-70
2022/04/04 04:34:08;;;;;;;0.40;0.30;;;;;;;2.51;91.95;100690.66;5114847;28;20450;-70
2022/04/04 04:36:36;;;;;;;0.40;0.30;;;;;;;2.53;91.81;100690.41;5114868;28;20435;-70
2022/04/04 04:39:03;;;;;;;0.40;0.30;;;;;;;2.54;91.83;100681.34;5114562;28;20558;-70
2022/04/04 04:41:29;;;;;;;0.40;0.30;;;;;;;2.56;91.97;100681.09;5114614;28;20431;-70
2022/04/04 04:43:56;;;;;;;0.40;0.30;;;;;;;2.58;91.45;100670.97;5114450;28;20492;-70
2022/04/04 04:46:23;;;;;;;0.40;0.30;;;;;;;2.61;91.42;100670.44;5114000;28;20873;-71
2022/04/04 04:48:50;;;;;;;0.40;0.30;;;;;;;2.59;91.63;100669.91;5114035;28;20968;-68
2022/04/04 04:51:16;;;;;;;0.40;0.30;;;;;;;2.64;91.49;100672.66;5114209;28;20448;-72
2022/04/04 04:53:43;;;;;;;0.40;0.30;;;;;;;2.67;91.52;100667.63;5114165;28;20811;-72
2022/04/04 04:56:09;;;;;;;0.40;0.30;;;;;;;2.67;91.05;100666.81;5114173;28;20456;-72
2022/04/04 04:58:35;;;;;;;0.40;0.30;;;;;;;2.67;90.54;100669.50;5114348;28;20463;-71
2022/04/04 05:01:02;;;;;;;0.40;0.30;;;;;;;2.67;90.55;100662.28;5113937;28;20473;-70
2022/04/04 05:03:30;;;;;;;0.40;0.30;;;;;;;2.69;90.64;100667.38;5114336;28;20442;-70
2022/04/04 05:05:57;;;;;;;2.40;2.23;;;;;;;2.70;90.43;100656.44;5114226;28;20440;-70
2022/04/04 05:08:23;;;;;;;0.60;0.60;;;;;;;2.78;90.17;100657.84;5113881;28;20976;-70
2022/04/04 05:10:51;;;;;;;0.40;0.30;;;;;;;2.83;89.65;100649.09;5114120;28;20477;-69
2022/04/04 05:13:18;;;;;;;0.40;0.30;;;;;;;2.82;90.05;100642.94;5114088;28;20532;-70
2022/04/04 05:15:45;;;;;;;0.40;0.30;;;;;;;2.86;89.71;100635.22;5113991;28;20438;-71
2022/04/04 05:18:12;;;;;;;0.40;0.30;;;;;;;2.89;89.72;100627.53;5114560;28;20471;-70
2022/04/04 05:20:40;;;;;;;0.40;0.30;;;;;;;2.95;89.57;100631.88;5113703;28;20439;-70
2022/04/04 05:23:06;;;;;;;0.40;0.30;;;;;;;3.04;89.26;100624.22;5113648;28;20968;-70
2022/04/04 05:25:33;;;;;;;0.40;0.30;;;;;;;3.16;88.16;100632.13;5113963;28;20443;-70
2022/04/04 05:27:59;;;;;;;0.40;0.30;;;;;;;3.19;88.35;100627.06;5113873;28;20489;-70
2022/04/04 05:30:26;;;;;;;0.40;0.30;;;;;;;3.25;88.02;100617.22;5113905;28;20481;-70
2022/04/04 05:32:53;;;;;;;0.40;0.30;;;;;;;3.28;86.84;100608.72;5113644;28;20482;-70
2022/04/04 05:35:20;;;;;;;0.40;0.30;;;;;;;3.34;86.93;100606.88;5113791;28;20447;-70
2022/04/04 05:37:54;;;;;;;0.40;0.30;;;;;;;3.40;86.37;100617.38;5113523;28;20543;-69
2022/04/04 05:40:20;;;;;;;0.40;0.30;;;;;;;3.50;86.29;100614.00;5113878;28;20464;-69
2022/04/04 05:42:48;;;;;;;1.57;1.47;;;;;;;3.53;86.03;100613.50;5113575;28;20440;-71
2022/04/04 05:45:14;;;;;;;0.40;0.30;;;;;;;3.58;85.53;100618.88;5113677;28;20440;-70
2022/04/04 05:47:41;;;;;;;0.40;0.30;;;;;;;3.69;84.96;100607.22;5113325;28;20458;-70
2022/04/04 05:50:09;;;;;;;0.40;0.30;;;;;;;3.78;84.19;100616.41;5113440;28;20459;-71
2022/04/04 05:52:36;;;;;;;0.40;0.30;;;;;;;3.84;83.88;100609.22;5113334;28;20490;-70
2022/04/04 05:55:04;;;;;;;0.40;0.30;;;;;;;3.91;83.53;100609.00;5113474;28;20456;-71
2022/04/04 05:57:34;;;;;;;0.40;0.30;;;;;;;3.97;83.01;100603.41;5116751;28;20440;-70
2022/04/04 06:00:00;;;;;;;0.40;0.30;;;;;;;4.03;82.43;100601.59;5117656;28;20558;-70
2022/04/04 06:02:27;;;;;;;0.40;0.30;;;;;;;4.09;82.46;100587.16;5117309;28;20786;-70
2022/04/04 06:04:54;;;;;;;0.40;0.30;;;;;;;4.14;82.13;100586.38;5117710;28;20436;-71
2022/04/04 06:07:21;;;;;;;0.40;0.30;;;;;;;4.21;81.63;100589.66;5117399;28;20936;-70
2022/04/04 06:09:47;;;;;;;0.43;0.43;;;;;;;4.24;81.71;100584.56;5117486;28;20467;-71
2022/04/04 06:12:15;;;;;;;0.40;0.30;;;;;;;4.27;81.34;100581.38;5117419;28;20483;-71
2022/04/04 06:14:41;;;;;;;0.40;0.30;;;;;;;4.36;80.64;100587.06;5117072;28;20864;-70
2022/04/04 06:17:08;;;;;;;0.50;0.50;;;;;;;4.34;80.70;100586.53;5117430;28;20451;-71
2022/04/04 06:19:35;;;;;;;0.40;0.40;;;;;;;4.42;80.14;100583.34;5117408;28;20467;-72
2022/04/04 06:22:03;;;;;;;0.40;0.30;;;;;;;4.43;80.08;100579.59;5117451;28;20467;-67
2022/04/04 06:24:31;;;;;;;0.40;0.30;;;;;;;4.46;79.94;100576.38;5117253;28;20443;-70
2022/04/04 06:26:57;;;;;;;0.40;0.30;;;;;;;4.52;79.55;100580.72;5117245;28;20447;-70
2022/04/04 06:29:25;;;;;;;0.40;0.30;;;;;;;4.51;78.64;100564.88;5117036;28;20459;-72
2022/04/04 06:31:52;;;;;;;0.40;0.30;;;;;;;4.55;78.71;100568.66;5117040;28;20435;-71
2022/04/04 06:34:19;;;;;;;0.40;0.30;;;;;;;4.61;78.63;100569.50;5117379;28;20534;-71
2022/04/04 06:36:46;;;;;;;0.40;0.30;;;;;;;4.60;78.94;100560.63;5116731;28;20922;-70
2022/04/04 06:39:13;;;;;;;0.40;0.30;;;;;;;4.65;78.55;100551.78;5117046;28;20463;-70
2022/04/04 06:41:39;;;;;;;0.40;0.30;;;;;;;4.68;78.04;100556.63;5116672;28;20932;-70
2022/04/04 06:44:06;;;;;;;0.50;0.30;;;;;;;4.71;77.50;100548.06;5116827;28;20435;-72
2022/04/04 06:46:35;;;;;;;0.40;0.30;;;;;;;4.78;77.15;100546.75;5116648;28;20814;-71
2022/04/04 06:49:02;;;;;;;0.40;0.30;;;;;;;4.80;77.96;100546.50;5116732;28;20472;-71
2022/04/04 06:51:28;;;;;;;0.40;0.30;;;;;;;4.80;76.97;100539.25;5116582;28;20450;-71
2022/04/04 06:53:55;;;;;;;0.40;0.30;;;;;;;4.83;77.13;100532.56;5116606;28;20891;-70
2022/04/04 06:56:21;;;;;;;0.40;0.30;;;;;;;4.86;77.69;100536.56;5116799;28;20492;-70
2022/04/04 06:58:48;;;;;;;0.73;0.73;;;;;;;4.92;76.78;100525.59;5116075;28;21029;-72
2022/04/04 07:01:15;;;;;;;0.40;0.30;;;;;;;4.99;76.34;100526.13;5116644;28;20858;-73
2022/04/04 07:03:42;;;;;;;0.40;0.30;;;;;;;5.05;76.11;100519.72;5116346;28;20446;-70
2022/04/04 07:06:09;;;;;;;0.40;0.30;;;;;;;5.11;75.34;100523.22;5116386;28;20450;-70
2022/04/04 07:08:36;;;;;;;0.40;0.30;;;;;;;5.15;75.25;100512.75;5115002;28;20554;-70
2022/04/04 07:11:03;;;;;;;0.40;0.40;;;;;;;5.20;74.94;100516.25;5116509;28;20535;-72
2022/04/04 07:13:31;;;;;;;0.40;0.30;;;;;;;5.26;73.94;100509.81;5116443;28;20475;-73
2022/04/04 07:15:58;;;;;;;0.40;0.30;;;;;;;5.31;74.51;100503.63;5116265;28;20439;-73
2022/04/04 07:18:24;;;;;;;0.40;0.30;;;;;;;5.44;73.84;100497.72;5116133;28;20455;-72
2022/04/04 07:20:52;;;;;;;0.40;0.30;;;;;;;5.55;72.93;100498.53;5116118;28;20447;-70
2022/04/04 07:23:18;;;;;;;0.40;0.40;;;;;;;5.56;71.83;100486.72;5115926;28;20496;-72
2022/04/04 07:25:45;;;;;;;0.40;0.30;;;;;;;5.59;71.59;100496.94;5116108;28;20500;-70
2022/04/04 07:28:13;;;;;;;0.40;0.30;;;;;;;5.67;70.23;100477.59;5115363;28;21029;-70
2022/04/04 07:30:40;;;;;;;0.40;0.30;;;;;;;5.69;70.54;100478.09;5115875;28;20444;-74
2022/04/04 07:33:09;;;;;;;0.40;0.30;;;;;;;5.81;69.14;100465.19;5115936;28;20483;-73
2022/04/04 07:35:37;;;;;;;0.40;0.30;;;;;;;5.92;68.86;100473.25;5115619;28;20451;-73
2022/04/04 07:38:05;;;;;;;0.40;0.30;;;;;;;5.93;66.13;100459.56;5115201;28;20960;-75
2022/04/04 07:40:31;;;;;;;0.40;0.30;;;;;;;5.95;66.62;100459.28;5116857;28;20470;-74
2022/04/04 07:42:58;;;;;;;0.40;0.40;;;;;;;6.05;66.26;100459.25;5115726;28;20443;-73
2022/04/04 07:45:26;;;;;;;0.40;0.30;;;;;;;6.13;64.69;100457.88;5115204;28;20945;-75
2022/04/04 07:47:52;;;;;;;0.40;0.30;;;;;;;6.13;64.72;100453.28;5115120;28;20525;-74
2022/04/04 07:50:19;;;;;;;0.40;0.30;;;;;;;6.24;64.41;100444.13;5115658;28;20450;-74
2022/04/04 07:52:45;;;;;;;0.40;0.30;;;;;;;6.25;63.58;100437.66;5115432;28;20851;-75
2022/04/04 07:55:15;;;;;;;0.40;0.30;;;;;;;6.32;62.92;100431.97;5115262;28;20440;-74
2022/04/04 07:57:42;;;;;;;0.40;0.30;;;;;;;6.28;62.45;100429.00;5115270;28;20534;-74
2022/04/04 08:00:12;;;;;;;0.40;0.30;;;;;;;6.35;63.02;100423.34;5114996;28;20459;-73
2022/04/04 08:02:39;;;;;;;0.40;0.30;;;;;;;6.41;61.89;100424.13;5115158;28;20526;-74
2022/04/04 08:05:08;;;;;;;0.40;0.30;;;;;;;6.40;62.19;100419.84;5115093;28;20438;-75
2022/04/04 08:07:35;;;;;;;0.40;0.30;;;;;;;6.39;61.62;100410.16;5115004;28;20483;-73
2022/04/04 08:10:02;;;;;;;0.40;0.30;;;;;;;6.37;61.27;100407.72;5114785;28;20471;-73
2022/04/04 08:12:30;;;;;;;0.40;0.30;;;;;;;6.42;61.71;100402.34;5114834;28;20855;-73
2022/04/04 08:14:57;;;;;;;0.40;0.30;;;;;;;6.47;62.18;100396.94;5114926;28;20443;-73
2022/04/04 08:17:25;;;;;;;0.40;0.30;;;;;;;6.59;61.76;100396.56;5115322;28;20435;-73
2022/04/04 08:19:51;;;;;;;0.40;0.30;;;;;;;6.65;60.90;100392.78;5114352;28;20837;-74
2022/04/04 08:22:18;;;;;;;0.40;0.30;;;;;;;6.76;60.62;100385.44;5114300;28;20447;-73
2022/04/04 08:24:44;;;;;;;0.40;0.30;;;;;;;6.88;60.72;100377.00;5114677;28;20440;-74
2022/04/04 08:27:11;;;;;;;0.40;0.40;;;;;;;6.86;59.94;100379.16;5114449;28;20542;-75
2022/04/04 08:29:39;;;;;;;0.40;0.30;;;;;;;6.92;59.71;100378.06;5114330;28;20459;-73
2022/04/04 08:32:06;;;;;;;0.40;0.30;;;;;;;6.87;59.88;100361.94;5114614;28;20440;-73
2022/04/04 08:34:32;;;;;;;0.83;0.83;;;;;;;6.90;59.97;100362.16;5114553;28;20490;-74
2022/04/04 08:36:59;;;;;;;0.40;0.30;;;;;;;7.01;59.08;100352.94;5114538;28;20551;-74
2022/04/04 08:39:25;;;;;;;0.40;0.30;;;;;;;7.06;59.73;100347.50;5114335;28;20459;-73
2022/04/04 08:41:55;;;;;;;0.40;0.30;;;;;;;7.16;59.52;100349.28;5114006;28;20977;-74
2022/04/04 08:44:22;;;;;;;0.40;0.30;;;;;;;7.27;59.56;100336.53;5114032;28;20937;-72
2022/04/04 08:46:51;;;;;;;0.40;0.30;;;;;;;7.27;58.33;100326.56;5113945;28;20468;-71
2022/04/04 08:49:18;;;;;;;0.40;0.30;;;;;;;7.22;58.18;100331.19;5113969;28;20460;-69
2022/04/04 08:51:45;;;;;;;0.90;0.90;;;;;;;7.24;58.08;100313.66;5113740;28;20479;-70
2022/04/04 08:54:12;;;;;;;0.40;0.30;;;;;;;7.25;57.60;100311.75;5113824;28;20482;-72
2022/04/04 08:56:38;;;;;;;0.97;0.97;;;;;;;7.26;57.76;100308.78;5114076;28;20450;-70
2022/04/04 08:59:04;;;;;;;0.40;0.30;;;;;;;7.29;57.92;100302.81;5113944;28;20467;-69
2022/04/04 09:01:31;;;;;;;0.40;0.30;;;;;;;7.31;57.38;100303.34;5113830;28;20811;-71
2022/04/04 09:04:14;;;;;;;0.40;0.30;;;;;;;7.33;57.22;100289.59;5113507;28;20997;-72
2022/04/04 09:06:47;;;;;;;0.40;0.30;;;;;;;7.27;56.91;100288.03;5113907;28;20423;-73
2022/04/04 09:09:18;;;;;;;0.40;0.30;;;;;;;7.23;56.92;100271.66;5113800;28;20462;-73
2022/04/04 09:11:52;;;;;;;0.40;0.30;;;;;;;7.32;57.25;100264.53;5114005;28;20435;-72
2022/04/04 09:14:22;;;;;;;0.40;0.30;;;;;;;7.45;56.88;100267.63;5113854;28;20459;-73
2022/04/04 09:16:55;;;;;;;0.40;0.30;;;;;;;7.50;56.38;100260.28;5113328;28;20924;-71
2022/04/04 09:19:29;;;;;;;0.40;0.30;;;;;;;7.40;56.27;100259.63;5113445;28;20463;-72
2022/04/04 09:21:56;;;;;;;0.40;0.30;;;;;;;7.46;56.56;100228.81;5113624;28;20415;-73
2022/04/04 09:24:43;;;;;;;0.40;0.30;;;;;;;7.67;55.54;100246.31;5113551;28;20439;-73
2022/04/04 09:27:13;;;;;;;2.30;2.10;;;;;;;7.66;55.45;100241.22;5113036;28;20824;-74
2022/04/04 09:29:42;;;;;;;0.40;0.30;;;;;;;7.77;54.80;100229.22;5113206;28;20470;-73
2022/04/04 09:32:11;;;;;;;0.40;0.30;;;;;;;7.81;55.55;100216.75;5112533;28;20474;-72
2022/04/04 09:35:00;;;;;;;0.40;0.30;;;;;;;7.94;55.24;100209.81;5113249;28;20479;-73
2022/04/04 09:37:30;;;;;;;0.40;0.30;;;;;;;8.12;55.11;100225.19;5113270;28;20428;-74
2022/04/04 09:40:04;;;;;;;0.40;0.30;;;;;;;8.09;54.41;100196.09;5113236;28;20834;-74
2022/04/04 09:42:32;;;;;;;0.40;0.30;;;;;;;8.22;53.68;100189.16;5112963;28;20467;-73
2022/04/04 09:45:00;;;;;;;0.40;0.30;;;;;;;8.26;53.78;100182.88;5112940;28;20467;-75
2022/04/04 09:47:49;;;;;;;0.40;0.30;;;;;;;8.19;53.49;100171.69;5112859;28;20463;-73
2022/04/04 09:50:32;;;;;;;0.40;0.30;;;;;;;8.34;53.50;100190.28;5103076;28;20929;-74
2022/04/04 09:52:59;;;;;;;0.40;0.30;;;;;;;8.45;53.62;100152.34;5110918;28;20452;-73
2022/04/04 09:55:30;;;;;;;0.40;0.30;;;;;;;8.66;52.50;100145.50;5113079;28;20451;-74
2022/04/04 09:57:59;;;;;;;0.40;0.30;;;;;;;8.76;52.31;100134.50;5112961;28;20442;-74
2022/04/04 10:00:26;;;;;;;0.40;0.30;;;;;;;8.83;52.05;100124.09;5112798;28;20959;-74
2022/04/04 10:02:56;;;;;;;0.40;0.30;;;;;;;8.76;51.36;100128.28;5113060;28;20446;-74
2022/04/04 10:05:25;;;;;;;0.40;0.30;;;;;;;8.53;51.78;100119.28;5113052;28;20526;-75
2022/04/04 10:07:55;;;;;;;0.40;0.40;;;;;;;8.27;52.52;100108.91;5113041;28;20532;-74
2022/04/04 10:10:24;;;;;;;0.40;0.30;;;;;;;8.31;52.39;100114.53;5112986;28;20428;-74
2022/04/04 10:12:53;;;;;;;0.80;0.77;;;;;;;8.22;52.76;100102.81;5112954;28;20440;-72
2022/04/04 10:15:20;;;;;;;0.40;0.30;;;;;;;8.18;53.08;100110.69;5112707;28;20792;-74
2022/04/04 10:17:47;;;;;;;0.40;0.30;;;;;;;8.18;53.05;100097.22;5112950;28;20810;-73
2022/04/04 10:20:14;;;;;;;0.40;0.30;;;;;;;8.27;53.21;100073.84;5112796;28;20443;-73
2022/04/04 10:22:41;;;;;;;1.17;1.17;;;;;;;8.42;52.81;100069.31;5112920;28;20466;-74
2022/04/04 10:25:09;;;;;;;0.40;0.30;;;;;;;8.51;52.53;100057.53;5112871;28;20545;-73
2022/04/04 10:27:36;;;;;;;0.40;0.30;;;;;;;8.62;52.01;100074.31;5113021;28;20444;-73
2022/04/04 10:30:05;;;;;;;0.40;0.30;;;;;;;8.55;51.39;100049.63;5112853;28;20538;-74
2022/04/04 10:32:32;;;;;;;0.40;0.30;;;;;;;8.58;51.27;100043.59;5112727;28;20443;-73
2022/04/04 10:35:08;;;;;;;0.40;0.30;;;;;;;8.61;51.08;100034.13;5112568;28;20490;-74
2022/04/04 10:37:43;;;;;;;0.40;0.30;;;;;;;8.87;50.70;100021.69;5112716;28;20838;-73
2022/04/04 10:40:19;;;;;;;0.40;0.30;;;;;;;9.00;50.81;100023.56;5112633;28;20431;-74
2022/04/04 10:42:46;;;;;;;0.40;0.30;;;;;;;9.08;49.25;100025.53;5114584;28;20432;-72
2022/04/04 10:45:15;;;;;;;0.40;0.20;;;;;;;9.06;48.96;100025.03;5116528;28;20829;-73
2022/04/04 10:47:44;;;;;;;0.40;0.30;;;;;;;9.04;48.72;100007.53;5116032;28;20490;-73
2022/04/04 10:50:25;;;;;;;0.83;0.83;;;;;;;8.97;48.48;99994.44;5115935;28;20451;-73
2022/04/04 10:52:53;;;;;;;0.40;0.30;;;;;;;8.94;48.63;99994.25;5116314;28;20491;-73
2022/04/04 10:55:53;;;;;;;0.40;0.30;;;;;;;9.00;48.47;99993.84;5116158;28;20531;-74
2022/04/04 10:58:29;;;;;;;0.40;0.30;;;;;;;8.88;48.00;99987.38;5116512;28;20885;-73
2022/04/04 11:01:09;;;;;;;0.40;0.30;;;;;;;8.84;48.13;99979.06;5116569;28;20477;-72
2022/04/04 11:03:37;;;;;;;0.40;0.30;;;;;;;8.73;48.36;99975.81;5116403;28;20431;-73
2022/04/04 11:09:05;;;;;;;0.40;0.30;;;;;;;8.60;48.86;99957.75;5115946;28;20439;-76
2022/04/04 11:11:52;;;;;;;0.40;0.30;;;;;;;8.61;48.50;99948.53;5116126;28;20424;-76
2022/04/04 11:14:42;;;;;;;0.40;0.30;;;;;;;8.42;49.22;99954.06;5116330;28;20550;-73
2022/04/04 11:17:30;;;;;;;0.40;0.30;;;;;;;8.39;50.12;99930.38;5116146;28;20803;-76
2022/04/04 11:20:00;;;;;;;0.40;0.30;;;;;;;8.54;49.33;99932.75;5115983;28;20952;-73
2022/04/04 11:22:29;;;;;;;0.40;0.30;;;;;;;8.61;49.35;99943.13;5115914;28;20435;-74
2022/04/04 11:24:58;;;;;;;0.40;0.30;;;;;;;8.53;49.59;99930.34;5115803;28;20464;-72
2022/04/04 11:27:27;;;;;;;0.40;0.30;;;;;;;8.49;49.71;99924.75;5115815;28;20485;-73
2022/04/04 11:29:53;;;;;;;0.40;0.30;;;;;;;8.48;50.29;99912.38;5115790;28;20463;-73
2022/04/04 11:32:31;;;;;;;0.40;0.30;;;;;;;8.48;50.40;99914.28;5115781;28;20492;-72
2022/04/04 11:35:01;;;;;;;0.40;0.30;;;;;;;8.55;50.44;99909.25;5115712;28;20472;-73
2022/04/04 11:37:29;;;;;;;0.40;0.30;;;;;;;8.56;50.90;99910.84;5115807;28;20431;-73
2022/04/04 11:40:03;;;;;;;0.40;0.30;;;;;;;8.29;51.29;99915.19;5115202;28;20876;-73
2022/04/04 11:42:32;;;;;;;0.40;0.30;;;;;;;8.27;51.84;99887.69;5115512;28;20505;-74
2022/04/04 11:44:59;;;;;;;0.40;0.40;;;;;;;8.28;52.05;99886.59;5115278;28;20928;-74